Saint Marys, Kansas
Current Conditions -  °F | °C
As of 9:53 AM on Wednesday 22 Oct 2014 (Local Time) from KTOP Reporting Station
Clear Clear  
Wind Chill: 61°   Ceiling: Unl
Heat Index: 61°   Visibility: 10mi
Dew Point: 50°   Wind: 10mph
Humidity: 67%   Direction: 130°SE
Pressure: 30.16"   Gusts: NA
Location:  39.19°N, 96.07°W
Report Text: KTOP 221453Z 13009KT 10SM CLR 16/10 A3016 RMK AO2 SLP211 T01610100 51006
Loading
Personal Weather Stations






























Interactive Weather Map
Tropical Storm Tracking
New forecast layout! Learn more

10-Day Weather Forecast

Advertisements
Track Severe Weather on mobile